Time;durP1;ratioP1;P1;durP2;ratioP2;P2;SDS_P1;SDS_P2;PMS_P1;PMS_P2;Temp;Humidity;BMP_temperature;BMP_pressure;BME280_temperature;BME280_humidity;BME280_pressure;Samples;Min_cycle;Max_cycle;Signal;HPM_P1;HPM_P2
2023/12/04 00:03:17;;;;;;;0.00;0.00;;;;;;;11.54;100.00;101390.06;10440090;28;20589;-81
2023/12/04 00:08:19;;;;;;;0.75;0.65;;;;;;;11.27;100.00;101371.22;10442978;28;20060;-80
2023/12/04 00:13:21;;;;;;;2.55;1.13;;;;;;;11.01;100.00;101377.28;10440358;28;20129;-79
2023/12/04 00:18:23;;;;;;;0.47;0.38;;;;;;;10.00;100.00;101371.31;10445001;28;20049;-79
2023/12/04 00:23:24;;;;;;;0.25;0.22;;;;;;;11.49;100.00;101355.50;10462312;28;20052;-80
2023/12/04 00:28:28;;;;;;;1.10;1.02;;;;;;;10.87;100.00;101359.63;10449652;28;20398;-79
2023/12/04 00:33:30;;;;;;;0.73;0.63;;;;;;;10.36;100.00;101351.91;10438544;28;20090;-80
2023/12/04 00:38:32;;;;;;;0.75;0.52;;;;;;;10.85;100.00;101337.22;10434472;28;20044;-79
2023/12/04 00:43:34;;;;;;;1.98;1.77;;;;;;;10.89;100.00;101341.66;10448627;28;20135;-79
2023/12/04 00:48:37;;;;;;;0.52;0.52;;;;;;;10.69;100.00;101334.16;10453674;28;20048;-79
2023/12/04 00:53:39;;;;;;;2.88;0.40;;;;;;;11.02;100.00;101330.03;10449406;28;20045;-79
2023/12/04 00:58:40;;;;;;;0.15;0.15;;;;;;;11.35;100.00;101317.28;10450147;28;20143;-79
2023/12/04 01:03:42;;;;;;;1.02;0.68;;;;;;;11.01;100.00;101310.22;10441516;28;20855;-80
2023/12/04 01:08:44;;;;;;;0.00;0.00;;;;;;;11.72;100.00;101313.16;10443542;28;20083;-79
2023/12/04 01:13:46;;;;;;;0.85;0.85;;;;;;;10.96;100.00;101312.66;10453953;28;20044;-79
2023/12/04 01:18:48;;;;;;;0.30;0.30;;;;;;;10.79;100.00;101325.91;10448739;28;20120;-79
2023/12/04 01:23:50;;;;;;;0.93;0.50;;;;;;;11.23;100.00;101302.31;10453495;28;20064;-80
2023/12/04 01:28:58;;;;;;;0.00;0.00;;;;;;;11.43;100.00;101299.44;10450296;28;20119;-80
2023/12/04 01:34:01;;;;;;;0.60;0.22;;;;;;;12.42;100.00;101303.78;10445901;28;20049;-79
2023/12/04 01:39:03;;;;;;;0.28;0.28;;;;;;;10.95;100.00;101298.88;10445299;28;20052;-79
2023/12/04 01:44:05;;;;;;;1.55;0.95;;;;;;;12.08;100.00;101290.03;10448246;28;20923;-79
2023/12/04 01:49:07;;;;;;;0.03;0.03;;;;;;;11.28;100.00;101289.56;10441135;28;20049;-80
2023/12/04 01:54:09;;;;;;;0.45;0.45;;;;;;;11.14;100.00;101280.50;10421256;28;20401;-80
2023/12/04 01:59:11;;;;;;;1.35;0.40;;;;;;;11.67;99.71;101281.19;10444721;28;20060;-79
2023/12/04 02:04:13;;;;;;;0.52;0.52;;;;;;;11.88;98.52;101282.56;10444268;28;20104;-79
2023/12/04 02:09:16;;;;;;;0.28;0.28;;;;;;;11.59;99.93;101272.34;10447197;28;20377;-79
2023/12/04 02:14:17;;;;;;;0.55;0.55;;;;;;;11.55;99.44;101271.38;10436275;28;20086;-79
2023/12/04 02:19:20;;;;;;;0.38;0.20;;;;;;;11.53;98.43;101261.84;10436669;28;20106;-79
2023/12/04 02:24:22;;;;;;;0.30;0.17;;;;;;;11.72;100.00;101256.38;10429843;28;20041;-79
2023/12/04 02:29:32;;;;;;;1.00;0.32;;;;;;;11.17;98.66;101247.09;10432324;28;20076;-80
2023/12/04 02:34:35;;;;;;;0.10;0.10;;;;;;;11.58;98.37;101242.19;10441275;28;20139;-79
2023/12/04 02:39:37;;;;;;;0.08;0.08;;;;;;;11.61;97.78;101237.13;10443368;28;20521;-79
2023/12/04 02:44:38;;;;;;;0.50;0.25;;;;;;;11.56;97.62;101226.69;10419393;28;20099;-80
2023/12/04 02:49:40;;;;;;;1.15;0.70;;;;;;;11.88;100.00;101215.44;10441960;28;20041;-80
2023/12/04 02:54:42;;;;;;;0.45;0.45;;;;;;;11.74;97.46;101218.56;10429562;28;20620;-80
2023/12/04 02:59:43;;;;;;;0.20;0.20;;;;;;;11.57;97.34;101206.94;10426135;28;20157;-79
2023/12/04 03:04:46;;;;;;;0.00;0.00;;;;;;;12.03;98.75;101195.22;10442966;28;20075;-79
2023/12/04 03:09:47;;;;;;;1.20;1.10;;;;;;;11.80;99.18;101192.03;10462236;28;20048;-79
2023/12/04 03:14:50;;;;;;;0.43;0.43;;;;;;;12.04;98.14;101178.88;10432508;28;20043;-79
2023/12/04 03:19:52;;;;;;;0.55;0.50;;;;;;;11.80;97.75;101178.28;10445658;28;20131;-79
2023/12/04 03:24:54;;;;;;;0.00;0.00;;;;;;;11.97;98.00;101173.56;10440398;28;20512;-80
2023/12/04 03:29:55;;;;;;;2.53;1.35;;;;;;;12.35;95.26;101168.44;10442060;28;20098;-79
2023/12/04 03:34:57;;;;;;;0.52;0.52;;;;;;;12.53;96.78;101165.38;10450266;28;20051;-79
2023/12/04 03:39:59;;;;;;;0.80;0.75;;;;;;;12.31;97.74;101164.00;10451068;28;20053;-79
2023/12/04 03:45:01;;;;;;;1.08;0.90;;;;;;;12.12;97.55;101162.72;10456320;28;20115;-79
2023/12/04 03:50:03;;;;;;;1.80;0.70;;;;;;;12.31;96.40;101149.41;10425142;28;20095;-80
2023/12/04 03:55:05;;;;;;;1.73;1.63;;;;;;;11.70;96.61;101152.22;10446571;28;20048;-80
2023/12/04 04:00:09;;;;;;;0.00;0.00;;;;;;;11.99;96.11;101140.91;10447802;28;20077;-80
2023/12/04 04:05:14;;;;;;;0.20;0.20;;;;;;;11.54;96.62;101144.91;10432206;28;20045;-79
2023/12/04 04:10:16;;;;;;;0.00;0.00;;;;;;;12.85;95.10;101126.38;10433460;28;20052;-79
2023/12/04 04:15:17;;;;;;;0.10;0.10;;;;;;;11.91;97.44;101127.75;10443516;28;20048;-80
2023/12/04 04:20:20;;;;;;;0.00;0.00;;;;;;;11.31;97.94;101134.88;10450940;28;20049;-79
2023/12/04 04:25:23;;;;;;;1.02;0.52;;;;;;;11.88;97.25;101127.69;10453972;28;20123;-79
2023/12/04 04:30:25;;;;;;;0.10;0.10;;;;;;;12.33;95.36;101121.88;10450868;28;20519;-80
2023/12/04 04:35:28;;;;;;;1.58;0.73;;;;;;;10.95;96.18;101120.16;10452554;28;20132;-79
2023/12/04 04:40:29;;;;;;;0.30;0.30;;;;;;;11.25;94.71;101099.47;10443016;28;20045;-80
2023/12/04 04:45:31;;;;;;;0.00;0.00;;;;;;;11.71;95.09;101099.78;10443279;28;20139;-79
2023/12/04 04:50:33;;;;;;;0.20;0.20;;;;;;;11.36;95.99;101097.16;10437461;28;20059;-81
2023/12/04 04:55:35;;;;;;;0.00;0.00;;;;;;;11.88;95.43;101086.38;10444002;28;20041;-80
2023/12/04 05:00:49;;;;;;;0.95;0.40;;;;;;;12.16;93.37;101076.72;10459530;28;20067;-79
2023/12/04 05:05:51;;;;;;;0.03;0.03;;;;;;;12.09;93.15;101082.59;10451231;28;20041;-80
2023/12/04 05:10:53;;;;;;;0.52;0.52;;;;;;;11.15;93.78;101070.81;10416822;28;20040;-80
2023/12/04 05:15:55;;;;;;;0.73;0.73;;;;;;;11.49;93.46;101061.38;10431821;28;20068;-80
2023/12/04 05:20:57;;;;;;;0.50;0.50;;;;;;;12.29;92.03;101059.75;10438483;28;20069;-80
2023/12/04 05:25:58;;;;;;;0.08;0.08;;;;;;;11.98;92.18;101056.53;10430919;28;20488;-80
2023/12/04 05:31:00;;;;;;;0.30;0.30;;;;;;;12.27;90.49;101054.56;10438485;28;20051;-80
2023/12/04 05:36:02;;;;;;;3.10;0.77;;;;;;;12.44;91.00;101054.06;10435401;28;20041;-80
2023/12/04 05:41:04;;;;;;;0.52;0.52;;;;;;;11.65;91.07;101053.16;10434303;28;20140;-80
2023/12/04 05:46:05;;;;;;;0.20;0.20;;;;;;;12.15;90.91;101054.31;10425951;28;20044;-80
2023/12/04 05:51:07;;;;;;;0.55;0.45;;;;;;;11.59;91.00;101053.00;10447688;28;20161;-80
2023/12/04 05:56:09;;;;;;;0.40;0.30;;;;;;;12.66;90.00;101047.59;10443571;28;20048;-79
2023/12/04 06:01:11;;;;;;;0.00;0.00;;;;;;;11.33;88.44;101034.28;10436987;28;20041;-79
2023/12/04 06:06:13;;;;;;;0.10;0.10;;;;;;;12.26;89.37;101037.31;10441350;28;20037;-79
2023/12/04 06:11:15;;;;;;;0.75;0.55;;;;;;;12.16;87.74;101033.69;10429474;28;20049;-80
2023/12/04 06:16:16;;;;;;;1.00;0.60;;;;;;;11.97;88.33;101022.06;10447694;28;20136;-80
2023/12/04 06:21:18;;;;;;;0.00;0.00;;;;;;;11.33;89.49;101009.41;10454296;28;20091;-80
2023/12/04 06:26:20;;;;;;;1.10;0.25;;;;;;;10.93;88.41;101003.22;10458541;28;20047;-81
2023/12/04 06:31:22;;;;;;;0.10;0.10;;;;;;;12.47;88.17;100995.56;10432493;28;20041;-80
2023/12/04 06:36:25;;;;;;;0.57;0.57;;;;;;;12.02;88.23;100991.19;10438109;28;20593;-79
2023/12/04 06:41:27;;;;;;;0.45;0.43;;;;;;;11.74;88.24;100993.16;10426742;28;20060;-79
2023/12/04 06:46:36;;;;;;;0.98;0.30;;;;;;;12.80;88.21;100984.13;10452496;28;20380;-80
2023/12/04 06:51:38;;;;;;;0.00;0.00;;;;;;;11.49;87.73;100978.81;10452854;28;20406;-79
2023/12/04 06:56:39;;;;;;;0.40;0.40;;;;;;;11.86;87.93;100984.81;10448854;28;20047;-79
2023/12/04 07:01:42;;;;;;;0.30;0.22;;;;;;;11.79;86.90;100970.03;10425960;28;20075;-80
2023/12/04 07:06:44;;;;;;;0.00;0.00;;;;;;;11.33;87.15;100960.38;10474328;28;20078;-79
2023/12/04 07:11:46;;;;;;;0.45;0.43;;;;;;;11.58;85.80;100948.91;10463794;28;20036;-80
2023/12/04 07:16:48;;;;;;;0.00;0.00;;;;;;;11.32;85.16;100944.88;10446093;28;20412;-80
2023/12/04 07:21:49;;;;;;;0.10;0.10;;;;;;;11.83;84.55;100933.09;10440385;28;20505;-79
2023/12/04 07:26:51;;;;;;;0.17;0.17;;;;;;;11.36;86.66;100942.38;10418701;28;20044;-79
2023/12/04 07:31:53;;;;;;;0.10;0.10;;;;;;;11.77;85.07;100938.13;10432917;28;20037;-80
2023/12/04 07:36:55;;;;;;;0.00;0.00;;;;;;;11.88;84.28;100936.63;10445265;28;20068;-80
2023/12/04 07:41:57;;;;;;;0.00;0.00;;;;;;;11.64;84.53;100927.56;10450425;28;20048;-81
2023/12/04 07:47:15;;;;;;;0.22;0.13;;;;;;;11.88;84.44;100926.31;10448350;28;20063;-80
2023/12/04 07:52:18;;;;;;;0.00;0.00;;;;;;;12.12;85.05;100920.81;10432467;28;20068;-80
2023/12/04 07:57:20;;;;;;;0.17;0.17;;;;;;;12.18;83.41;100904.56;10446668;28;20044;-80
2023/12/04 08:02:22;;;;;;;0.35;0.35;;;;;;;11.09;84.15;100909.97;10425298;28;20099;-79
2023/12/04 08:07:24;;;;;;;0.98;0.90;;;;;;;10.57;85.87;100908.66;10442452;28;20049;-79
2023/12/04 08:12:27;;;;;;;0.00;0.00;;;;;;;12.61;85.06;100891.56;10448781;28;20048;-79
2023/12/04 08:17:29;;;;;;;0.00;0.00;;;;;;;11.73;85.95;100896.75;10432626;28;20037;-79
2023/12/04 08:22:31;;;;;;;0.00;0.00;;;;;;;11.45;85.91;100894.41;10444495;28;20127;-80
2023/12/04 08:27:33;;;;;;;0.00;0.00;;;;;;;11.69;85.21;100887.22;10447138;28;20045;-79
2023/12/04 08:32:35;;;;;;;0.40;0.40;;;;;;;11.66;86.54;100889.72;10427614;28;20044;-80
2023/12/04 08:37:37;;;;;;;0.00;0.00;;;;;;;11.18;86.49;100880.94;10425514;28;20049;-80
2023/12/04 08:42:39;;;;;;;0.70;0.47;;;;;;;11.62;84.87;100887.94;10444210;28;20051;-80
2023/12/04 08:47:41;;;;;;;0.10;0.10;;;;;;;10.85;86.55;100901.63;10433885;28;20037;-80
2023/12/04 08:52:43;;;;;;;0.43;0.20;;;;;;;11.74;86.04;100898.50;10421398;28;20417;-80
2023/12/04 08:57:44;;;;;;;1.55;0.75;;;;;;;12.38;86.27;100885.16;10436209;28;20052;-80
2023/12/04 09:02:48;;;;;;;0.00;0.00;;;;;;;11.57;84.12;100882.66;10424672;28;20045;-79
2023/12/04 09:07:58;;;;;;;0.35;0.35;;;;;;;11.31;84.69;100876.94;10420502;28;20047;-79
2023/12/04 09:13:20;;;;;;;0.00;0.00;;;;;;;11.74;86.59;100862.38;10429805;28;20488;-79
2023/12/04 09:18:21;;;;;;;1.65;0.55;;;;;;;10.58;86.68;100861.47;10432385;28;20116;-79
2023/12/04 09:23:24;;;;;;;0.10;0.10;;;;;;;11.82;86.56;100853.91;10437660;28;20048;-80
2023/12/04 09:28:27;;;;;;;0.35;0.35;;;;;;;11.70;87.06;100862.28;10445864;28;20480;-79
2023/12/04 09:33:29;;;;;;;0.00;0.00;;;;;;;12.38;86.47;100840.34;10419264;28;20496;-79
2023/12/04 09:38:30;;;;;;;0.73;0.60;;;;;;;11.21;87.25;100851.75;10434447;28;20136;-80
2023/12/04 09:43:32;;;;;;;0.30;0.30;;;;;;;11.75;86.86;100837.44;10417954;28;20052;-80
2023/12/04 09:48:35;;;;;;;0.00;0.00;;;;;;;11.37;85.96;100830.63;10439707;28;20089;-79
2023/12/04 09:53:39;;;;;;;0.00;0.00;;;;;;;12.48;85.78;100821.59;10449704;28;20052;-80
2023/12/04 09:58:42;;;;;;;0.00;0.00;;;;;;;11.35;87.05;100828.88;10445170;28;20479;-80
2023/12/04 10:03:45;;;;;;;0.00;0.00;;;;;;;11.87;85.18;100823.91;10436743;28;20136;-79
2023/12/04 10:08:47;;;;;;;0.00;0.00;;;;;;;12.30;87.19;100816.97;10443778;28;20431;-80
2023/12/04 10:13:49;;;;;;;0.63;0.47;;;;;;;11.84;84.67;100824.69;10432445;28;20049;-81
2023/12/04 10:19:20;;;;;;;0.15;0.15;;;;;;;11.49;87.61;100806.81;10444406;28;20072;-80
2023/12/04 10:24:33;;;;;;;0.08;0.08;;;;;;;12.78;85.45;100789.31;10450954;28;20045;-79
2023/12/04 10:29:45;;;;;;;0.35;0.30;;;;;;;13.06;86.87;100794.03;10437047;28;20065;-81
2023/12/04 10:34:48;;;;;;;0.10;0.10;;;;;;;12.28;84.78;100787.66;10445656;28;20045;-77
2023/12/04 10:39:51;;;;;;;0.00;0.00;;;;;;;12.40;85.27;100774.09;10453279;28;20407;-78
2023/12/04 10:44:57;;;;;;;0.10;0.05;;;;;;;13.31;85.59;100766.75;10447094;28;20091;-77
2023/12/04 10:49:59;;;;;;;0.00;0.00;;;;;;;13.12;85.82;100763.06;10481525;28;20063;-80
2023/12/04 10:55:01;;;;;;;0.17;0.13;;;;;;;12.44;85.64;100752.59;10451488;28;20059;-78
2023/12/04 11:00:08;;;;;;;0.80;0.65;;;;;;;12.42;83.30;100754.31;10449727;28;20415;-81
2023/12/04 11:05:16;;;;;;;0.17;0.17;;;;;;;12.66;85.38;100753.81;10446860;28;20045;-79
2023/12/04 11:10:23;;;;;;;0.00;0.00;;;;;;;12.68;85.07;100739.22;10429114;28;20047;-79
2023/12/04 11:15:27;;;;;;;0.13;0.13;;;;;;;11.78;85.67;100738.56;10440976;28;20053;-80
2023/12/04 11:20:35;;;;;;;0.03;0.03;;;;;;;13.11;84.62;100717.34;10437548;28;20071;-80
2023/12/04 11:25:38;;;;;;;0.10;0.10;;;;;;;13.86;85.13;100717.34;10432764;28;20095;-80
2023/12/04 11:30:41;;;;;;;0.00;0.00;;;;;;;13.44;84.57;100705.72;10447803;28;20140;-80
2023/12/04 11:35:44;;;;;;;0.00;0.00;;;;;;;13.20;85.79;100709.72;10433381;28;20044;-81
2023/12/04 11:40:46;;;;;;;0.00;0.00;;;;;;;13.43;84.67;100703.97;10427835;28;20090;-81
2023/12/04 11:45:49;;;;;;;0.08;0.03;;;;;;;13.55;84.87;100700.66;10446845;28;20041;-80
2023/12/04 11:50:51;;;;;;;0.00;0.00;;;;;;;13.02;84.30;100700.88;10440977;28;20045;-80
2023/12/04 11:55:57;;;;;;;0.13;0.10;;;;;;;12.53;84.32;100698.50;10438721;28;20127;-82
2023/12/04 12:01:00;;;;;;;0.00;0.00;;;;;;;12.81;84.66;100680.75;10432961;28;20463;-81
2023/12/04 12:06:03;;;;;;;0.28;0.20;;;;;;;12.70;85.48;100678.03;10452628;28;20570;-80
2023/12/04 12:11:06;;;;;;;0.08;0.05;;;;;;;12.30;85.57;100669.75;10434646;28;20045;-81
2023/12/04 12:16:08;;;;;;;0.03;0.03;;;;;;;13.04;85.07;100649.16;10444356;28;20041;-80
2023/12/04 12:21:10;;;;;;;0.10;0.10;;;;;;;12.18;84.79;100648.88;10451139;28;20045;-80
2023/12/04 12:26:12;;;;;;;0.00;0.00;;;;;;;12.32;84.80;100639.63;10444670;28;20148;-81
2023/12/04 12:31:14;;;;;;;0.40;0.25;;;;;;;12.83;84.33;100639.44;10436125;28;20045;-80
2023/12/04 12:36:17;;;;;;;0.10;0.10;;;;;;;13.11;84.96;100632.84;10436723;28;20136;-81
2023/12/04 12:41:20;;;;;;;1.65;0.82;;;;;;;12.90;85.47;100623.16;10438636;28;20416;-81
2023/12/04 12:46:22;;;;;;;0.70;0.70;;;;;;;13.02;85.59;100610.34;10438322;28;20041;-81
2023/12/04 12:51:24;;;;;;;0.13;0.10;;;;;;;12.93;85.17;100597.31;10419746;28;20419;-81
2023/12/04 12:56:26;;;;;;;0.00;0.00;;;;;;;13.67;84.36;100596.31;10444245;28;20040;-81
2023/12/04 13:01:32;;;;;;;0.35;0.35;;;;;;;13.30;84.61;100586.50;10438251;28;20040;-82
2023/12/04 13:06:34;;;;;;;0.08;0.08;;;;;;;13.52;85.69;100579.81;10464838;28;20068;-81
2023/12/04 13:11:37;;;;;;;0.25;0.17;;;;;;;13.21;86.22;100565.72;10438946;28;20047;-81
2023/12/04 13:16:40;;;;;;;0.25;0.25;;;;;;;13.10;85.81;100563.03;10438578;28;20048;-81
2023/12/04 13:21:42;;;;;;;0.50;0.50;;;;;;;13.32;86.21;100544.25;10451771;28;20080;-81
2023/12/04 13:26:44;;;;;;;0.47;0.22;;;;;;;13.37;88.24;100551.19;10451505;28;20052;-81
2023/12/04 13:31:49;;;;;;;0.75;0.52;;;;;;;13.83;86.88;100548.13;10437562;28;20480;-81
2023/12/04 13:36:53;;;;;;;0.20;0.20;;;;;;;14.07;88.42;100529.28;10427280;28;20041;-80
2023/12/04 13:47:15;;;;;;;;;;;;;;;13.33;88.12;100504.59;10439340;28;20061;-80
2023/12/04 13:52:22;;;;;;;0.10;0.10;;;;;;;12.77;90.62;100497.19;10444978;28;20275;-81
2023/12/04 14:02:28;;;;;;;0.00;0.00;;;;;;;13.17;88.58;100482.94;10474743;28;20065;-81
2023/12/04 14:07:31;;;;;;;0.35;0.35;;;;;;;12.90;89.72;100480.94;10458207;28;20621;-81
2023/12/04 14:12:33;;;;;;;0.13;0.13;;;;;;;13.12;88.94;100469.06;10452658;28;20044;-81
2023/12/04 14:17:35;;;;;;;0.00;0.00;;;;;;;13.05;90.37;100472.44;10451849;28;20036;-81
2023/12/04 14:22:36;;;;;;;0.25;0.22;;;;;;;12.87;90.69;100461.97;10425640;28;20071;-81
2023/12/04 14:27:43;;;;;;;0.30;0.30;;;;;;;12.82;90.10;100460.19;10443148;28;20069;-80
2023/12/04 14:32:45;;;;;;;0.70;0.63;;;;;;;12.58;90.47;100447.88;10436565;28;20135;-82
2023/12/04 14:37:50;;;;;;;0.00;0.00;;;;;;;12.69;92.16;100453.16;10435201;28;20049;-81
2023/12/04 14:42:52;;;;;;;0.00;0.00;;;;;;;12.87;93.16;100436.97;10435641;28;20771;-82
2023/12/04 14:47:56;;;;;;;0.77;0.38;;;;;;;11.75;94.72;100438.28;10468282;28;20491;-81
2023/12/04 14:53:11;;;;;;;0.10;0.10;;;;;;;12.12;96.47;100421.53;10453985;28;20136;-80
2023/12/04 15:14:51;;;;;;;0.30;0.30;;;;;;;13.05;97.82;100396.59;10462666;28;20127;-80
2023/12/04 15:25:01;;;;;;;0.10;0.10;;;;;;;13.46;98.12;100390.88;10447695;28;20047;-80
2023/12/04 15:30:04;;;;;;;0.10;0.10;;;;;;;12.95;97.28;100393.94;10437408;28;20052;-79
2023/12/04 15:35:08;;;;;;;0.10;0.10;;;;;;;12.72;98.34;100385.13;10437048;28;20045;-79
2023/12/04 15:40:14;;;;;;;0.10;0.10;;;;;;;12.80;96.67;100386.94;10443131;28;20152;-79
2023/12/04 15:45:16;;;;;;;0.25;0.25;;;;;;;11.83;99.85;100375.56;10430176;28;20448;-79
2023/12/04 15:50:20;;;;;;;1.60;0.80;;;;;;;13.32;100.00;100363.16;10447269;28;20056;-79
2023/12/04 15:55:22;;;;;;;0.40;0.30;;;;;;;12.31;99.78;100369.25;10460272;28;20049;-78
2023/12/04 16:00:25;;;;;;;0.80;0.80;;;;;;;12.39;100.00;100361.56;10453975;28;20488;-77
2023/12/04 16:05:26;;;;;;;0.00;0.00;;;;;;;12.62;100.00;100359.19;10461390;28;20496;-77
2023/12/04 16:10:29;;;;;;;0.10;0.10;;;;;;;12.95;99.98;100356.88;10458890;28;20037;-78
2023/12/04 16:15:30;;;;;;;1.20;0.52;;;;;;;12.59;98.75;100359.19;10452129;28;20064;-78
2023/12/04 16:20:32;;;;;;;0.13;0.13;;;;;;;12.50;100.00;100359.09;10444492;28;20095;-79
2023/12/04 16:25:34;;;;;;;0.52;0.25;;;;;;;12.98;100.00;100347.44;10446080;28;20045;-78
2023/12/04 16:30:38;;;;;;;0.65;0.65;;;;;;;13.04;100.00;100356.09;10444942;28;20041;-80
2023/12/04 16:35:40;;;;;;;0.43;0.43;;;;;;;12.69;100.00;100352.38;10436872;28;20086;-79
2023/12/04 16:40:42;;;;;;;0.28;0.28;;;;;;;13.06;100.00;100349.22;10447223;28;20057;-78
2023/12/04 16:45:44;;;;;;;0.10;0.10;;;;;;;12.98;100.00;100334.50;10441517;28;20047;-78
2023/12/04 16:50:46;;;;;;;0.40;0.40;;;;;;;12.97;100.00;100329.31;10450695;28;20041;-79
2023/12/04 16:55:48;;;;;;;0.28;0.28;;;;;;;12.31;100.00;100330.53;10439884;28;20046;-79
2023/12/04 17:00:50;;;;;;;0.30;0.20;;;;;;;11.97;100.00;100331.88;10441621;28;20075;-79
2023/12/04 17:05:52;;;;;;;0.45;0.38;;;;;;;12.88;100.00;100319.78;10449520;28;20579;-79
2023/12/04 17:10:54;;;;;;;1.05;0.47;;;;;;;12.10;100.00;100330.31;10470743;28;20468;-80
2023/12/04 17:15:56;;;;;;;0.52;0.40;;;;;;;12.91;100.00;100317.22;10462044;28;20049;-80
2023/12/04 17:20:58;;;;;;;0.20;0.20;;;;;;;12.76;100.00;100314.53;10441506;28;20042;-80
2023/12/04 17:26:01;;;;;;;0.35;0.35;;;;;;;12.35;100.00;100314.19;10449232;28;20139;-80
2023/12/04 17:31:03;;;;;;;0.43;0.43;;;;;;;13.73;100.00;100306.44;10434528;28;20040;-80
2023/12/04 17:36:05;;;;;;;0.00;0.00;;;;;;;13.27;100.00;100307.94;10420845;28;20041;-80
2023/12/04 17:41:10;;;;;;;0.00;0.00;;;;;;;12.41;100.00;100302.16;10423878;28;20049;-80
2023/12/04 17:46:12;;;;;;;0.08;0.08;;;;;;;12.70;100.00;100295.50;10444053;28;20061;-81
2023/12/04 17:51:17;;;;;;;0.13;0.13;;;;;;;11.78;100.00;100294.63;10439175;28;20049;-81
2023/12/04 17:56:19;;;;;;;0.00;0.00;;;;;;;13.21;100.00;100274.28;10442240;28;20118;-80
2023/12/04 18:01:21;;;;;;;0.00;0.00;;;;;;;12.72;100.00;100273.97;10431423;28;20072;-81
2023/12/04 18:06:31;;;;;;;0.10;0.10;;;;;;;12.45;100.00;100278.94;10451363;28;20076;-81
2023/12/04 18:11:34;;;;;;;0.10;0.10;;;;;;;13.39;100.00;100273.53;10453149;28;20523;-81
2023/12/04 18:16:36;;;;;;;0.65;0.47;;;;;;;13.56;100.00;100268.44;10448071;28;20472;-82
2023/12/04 18:21:38;;;;;;;0.40;0.40;;;;;;;12.78;100.00;100253.34;10431343;28;20059;-81
2023/12/04 18:26:42;;;;;;;1.13;0.90;;;;;;;11.83;100.00;100257.72;10429293;28;20032;-82
2023/12/04 18:31:44;;;;;;;0.15;0.15;;;;;;;12.58;100.00;100246.34;10431895;28;20049;-81
2023/12/04 18:36:48;;;;;;;0.60;0.28;;;;;;;11.74;100.00;100245.56;10466992;28;20048;-81
2023/12/04 18:41:51;;;;;;;0.22;0.22;;;;;;;12.15;100.00;100233.09;10453952;28;20041;-80
2023/12/04 18:46:56;;;;;;;0.35;0.35;;;;;;;11.70;100.00;100241.22;10454352;28;20060;-81
2023/12/04 18:51:58;;;;;;;0.17;0.17;;;;;;;12.63;100.00;100226.53;10455656;28;20147;-81
2023/12/04 18:57:00;;;;;;;0.60;0.55;;;;;;;11.47;100.00;100227.22;10462192;28;20045;-81
2023/12/04 19:02:03;;;;;;;1.08;0.40;;;;;;;12.64;100.00;100211.91;10432666;28;20048;-82
2023/12/04 19:07:06;;;;;;;0.20;0.20;;;;;;;11.83;100.00;100225.88;10456475;28;20049;-80
2023/12/04 19:12:08;;;;;;;0.20;0.20;;;;;;;11.83;100.00;100226.75;10457480;28;20072;-81
2023/12/04 19:17:10;;;;;;;0.10;0.10;;;;;;;12.56;100.00;100209.28;10433359;28;20490;-81
2023/12/04 19:22:11;;;;;;;0.13;0.13;;;;;;;12.74;100.00;100210.25;10428498;28;20488;-81
2023/12/04 19:27:13;;;;;;;0.00;0.00;;;;;;;12.59;100.00;100193.81;10445167;28;20103;-80
2023/12/04 19:32:15;;;;;;;0.43;0.43;;;;;;;12.42;100.00;100195.41;10460324;28;20049;-81
2023/12/04 19:37:22;;;;;;;0.75;0.70;;;;;;;12.79;100.00;100188.75;10442161;28;20064;-80
2023/12/04 19:42:26;;;;;;;0.30;0.30;;;;;;;12.50;100.00;100179.13;10464734;28;20080;-81
2023/12/04 19:47:27;;;;;;;0.55;0.40;;;;;;;12.46;100.00;100166.16;10441354;28;20377;-81
2023/12/04 19:52:29;;;;;;;0.13;0.13;;;;;;;12.15;100.00;100165.94;10428946;28;20635;-80
2023/12/04 19:57:33;;;;;;;0.25;0.25;;;;;;;11.79;100.00;100167.34;10435513;28;20115;-80
2023/12/04 20:02:35;;;;;;;0.10;0.10;;;;;;;12.83;100.00;100153.44;10438461;28;20068;-81
2023/12/04 20:07:37;;;;;;;0.20;0.20;;;;;;;11.89;100.00;100149.38;10436620;28;20123;-80
2023/12/04 20:12:38;;;;;;;1.30;1.08;;;;;;;12.05;100.00;100149.53;10444864;28;20582;-81
2023/12/04 20:17:42;;;;;;;0.43;0.30;;;;;;;12.15;100.00;100142.72;10443766;28;20049;-81
2023/12/04 20:22:44;;;;;;;0.40;0.40;;;;;;;12.48;100.00;100146.34;10440137;28;20051;-80
2023/12/04 20:27:45;;;;;;;0.50;0.47;;;;;;;13.31;100.00;100138.94;10463556;28;20128;-81
2023/12/04 20:32:47;;;;;;;0.20;0.20;;;;;;;12.37;100.00;100136.84;10439050;28;20041;-80
2023/12/04 20:37:49;;;;;;;0.00;0.00;;;;;;;13.01;100.00;100130.22;10442682;28;20415;-80
2023/12/04 20:42:51;;;;;;;0.20;0.20;;;;;;;12.44;100.00;100121.38;10424986;28;20083;-81
2023/12/04 20:47:53;;;;;;;0.20;0.20;;;;;;;12.45;100.00;100112.75;10439745;28;20076;-81
2023/12/04 20:52:55;;;;;;;0.55;0.55;;;;;;;12.99;100.00;100110.41;10443729;28;20044;-80
2023/12/04 20:57:58;;;;;;;0.10;0.10;;;;;;;12.59;100.00;100103.34;10444539;28;20041;-80
2023/12/04 21:03:01;;;;;;;2.35;0.57;;;;;;;11.96;100.00;100102.94;10431353;28;20061;-80
2023/12/04 21:08:04;;;;;;;0.32;0.32;;;;;;;12.34;100.00;100103.22;10433807;28;20048;-80
2023/12/04 21:13:07;;;;;;;0.17;0.17;;;;;;;12.03;100.00;100097.84;10435653;28;20076;-80
2023/12/04 21:18:09;;;;;;;0.20;0.20;;;;;;;12.50;100.00;100090.38;10441698;28;20051;-80
2023/12/04 21:23:11;;;;;;;0.10;0.10;;;;;;;12.06;100.00;100095.31;10445159;28;20124;-80
2023/12/04 21:28:13;;;;;;;1.13;0.68;;;;;;;12.11;100.00;100094.47;10431948;28;20041;-81
2023/12/04 21:33:16;;;;;;;1.38;0.90;;;;;;;12.92;100.00;100094.00;10450423;28;20103;-80
2023/12/04 21:38:18;;;;;;;3.33;1.30;;;;;;;12.76;100.00;100081.91;10429704;28;20056;-81
2023/12/04 21:43:20;;;;;;;1.35;1.08;;;;;;;13.09;100.00;100078.56;10459727;28;20495;-80
2023/12/04 21:48:22;;;;;;;0.50;0.40;;;;;;;13.16;100.00;100076.81;10462377;28;20492;-81
2023/12/04 21:53:24;;;;;;;0.10;0.10;;;;;;;12.62;100.00;100072.34;10423437;28;20097;-80
2023/12/04 21:58:28;;;;;;;0.00;0.00;;;;;;;13.47;100.00;100066.56;10421643;28;20046;-81
2023/12/04 22:03:32;;;;;;;0.30;0.30;;;;;;;14.01;100.00;100063.06;10458858;28;20032;-81
2023/12/04 22:08:34;;;;;;;0.70;0.70;;;;;;;12.54;100.00;100062.00;10452375;28;20033;-80
2023/12/04 22:13:36;;;;;;;0.17;0.17;;;;;;;13.30;100.00;100054.44;10448920;28;20392;-81
2023/12/04 22:18:38;;;;;;;0.00;0.00;;;;;;;13.20;100.00;100042.38;10454658;28;20572;-81
2023/12/04 22:23:39;;;;;;;0.00;0.00;;;;;;;13.32;100.00;100041.53;10447097;28;20045;-81
2023/12/04 22:28:41;;;;;;;0.00;0.00;;;;;;;13.04;100.00;100040.59;10455132;28;20119;-80
2023/12/04 22:33:43;;;;;;;0.20;0.20;;;;;;;13.79;100.00;100032.03;10453161;28;20139;-81
2023/12/04 22:38:45;;;;;;;0.95;0.82;;;;;;;13.35;100.00;100036.31;10449385;28;20037;-81
2023/12/04 22:43:47;;;;;;;0.28;0.28;;;;;;;13.06;100.00;100032.00;10473254;28;20033;-80
2023/12/04 22:48:49;;;;;;;0.28;0.20;;;;;;;13.19;100.00;100035.47;10447087;28;20035;-81
2023/12/04 22:53:51;;;;;;;0.40;0.40;;;;;;;13.91;100.00;100031.16;10438072;28;20143;-81
2023/12/04 22:58:53;;;;;;;0.10;0.10;;;;;;;13.29;100.00;100029.41;10443004;28;20037;-81
2023/12/04 23:03:55;;;;;;;0.35;0.35;;;;;;;14.18;100.00;100030.25;10439737;28;20551;-81
2023/12/04 23:08:57;;;;;;;0.10;0.10;;;;;;;13.83;100.00;100023.38;10441018;28;20040;-81
2023/12/04 23:13:59;;;;;;;0.00;0.00;;;;;;;13.27;100.00;100026.00;10442358;28;20060;-80
2023/12/04 23:19:03;;;;;;;0.52;0.50;;;;;;;13.63;100.00;100016.53;10447202;28;20072;-81
2023/12/04 23:24:06;;;;;;;0.75;0.55;;;;;;;13.21;100.00;100027.69;10437928;28;20045;-81
2023/12/04 23:29:08;;;;;;;0.15;0.15;;;;;;;13.82;100.00;100021.66;10449060;28;20043;-81
2023/12/04 23:34:10;;;;;;;0.38;0.25;;;;;;;13.30;100.00;100013.03;10441951;28;20407;-81
2023/12/04 23:39:12;;;;;;;0.20;0.20;;;;;;;13.68;100.00;100020.81;10455295;28;20033;-81